createdAt,value
2022-12-31T00:00:33.782Z,2.77
2022-12-31T00:03:01.697Z,18.90
2022-12-31T00:05:31.219Z,23.10
2022-12-31T00:08:01.578Z,37.97
2022-12-31T00:10:34.170Z,8.87
2022-12-31T00:13:04.219Z,2.83
2022-12-31T00:15:32.243Z,2.13
2022-12-31T00:18:00.026Z,3.57
2022-12-31T00:20:27.706Z,3.87
2022-12-31T00:22:55.736Z,3.43
2022-12-31T00:25:24.961Z,5.00
2022-12-31T00:27:52.784Z,9.70
2022-12-31T00:30:20.518Z,5.37
2022-12-31T00:32:48.353Z,4.03
2022-12-31T00:35:16.087Z,2.30
2022-12-31T00:37:44.008Z,4.17
2022-12-31T00:40:12.601Z,2.00
2022-12-31T00:42:41.773Z,2.10
2022-12-31T00:45:10.067Z,5.40
2022-12-31T00:47:38.286Z,1.90
2022-12-31T00:50:07.067Z,2.57
2022-12-31T00:52:34.926Z,2.20
2022-12-31T00:55:02.716Z,1.87
2022-12-31T00:57:30.469Z,2.40
2022-12-31T00:59:59.616Z,2.10
2022-12-31T01:02:27.536Z,3.50
2022-12-31T01:04:55.514Z,2.53
2022-12-31T01:07:23.398Z,6.97
2022-12-31T01:09:51.178Z,1.90
2022-12-31T01:12:18.988Z,2.07
2022-12-31T01:14:46.784Z,2.17
2022-12-31T01:17:17.198Z,3.57
2022-12-31T01:19:44.992Z,3.70
2022-12-31T01:22:12.809Z,2.97
2022-12-31T01:24:40.592Z,2.17
2022-12-31T01:27:08.323Z,2.23
2022-12-31T01:29:36.087Z,5.33
2022-12-31T01:32:03.849Z,2.87
2022-12-31T01:34:33.359Z,2.40
2022-12-31T01:37:01.121Z,6.50
2022-12-31T01:39:28.875Z,2.43
2022-12-31T01:41:56.619Z,1.53
2022-12-31T01:44:49.520Z,6.90
2022-12-31T01:47:21.950Z,3.80
2022-12-31T01:49:55.214Z,2.83
2022-12-31T01:52:28.964Z,8.30
2022-12-31T01:55:00.869Z,2.33
2022-12-31T01:57:29.197Z,2.30
2022-12-31T01:59:58.020Z,1.83
2022-12-31T02:02:26.158Z,1.50
2022-12-31T02:04:59.202Z,2.47
2022-12-31T02:07:27.259Z,2.97
2022-12-31T02:09:55.405Z,1.47
2022-12-31T02:12:23.466Z,2.40
2022-12-31T02:14:53.999Z,1.40
2022-12-31T02:17:29.165Z,2.50
2022-12-31T02:20:29.309Z,2.80
2022-12-31T02:23:25.053Z,1.90
2022-12-31T02:26:24.389Z,1.70
2022-12-31T02:29:22.872Z,1.57
2022-12-31T02:31:57.198Z,1.30
2022-12-31T02:34:32.197Z,0.90
2022-12-31T02:37:03.380Z,1.30
2022-12-31T02:39:32.411Z,307.30
2022-12-31T02:42:02.673Z,28.73
2022-12-31T02:44:32.119Z,4.73
2022-12-31T02:47:14.248Z,1.87
2022-12-31T02:49:52.951Z,1.40
2022-12-31T02:52:27.216Z,1.43
2022-12-31T02:55:04.325Z,1.30
2022-12-31T02:57:40.897Z,1.57
2022-12-31T03:00:29.710Z,1.10
2022-12-31T03:02:59.739Z,1.00
2022-12-31T03:05:33.390Z,1.30
2022-12-31T03:08:01.099Z,1.17
2022-12-31T03:10:29.009Z,0.80
2022-12-31T03:12:55.806Z,1.53
2022-12-31T03:15:25.870Z,5.50
2022-12-31T03:17:56.967Z,3.93
2022-12-31T03:20:47.640Z,1.60
2022-12-31T03:23:19.016Z,1.70
2022-12-31T03:25:46.080Z,1.40
2022-12-31T03:28:15.661Z,1.00
2022-12-31T03:30:45.467Z,1.17
2022-12-31T03:33:13.486Z,2.07
2022-12-31T03:35:44.272Z,2.40
2022-12-31T03:38:12.743Z,0.80
2022-12-31T03:40:42.998Z,1.80
2022-12-31T03:43:11.207Z,1.40
2022-12-31T03:45:39.783Z,1.33
2022-12-31T03:48:10.384Z,20.33
2022-12-31T03:50:38.468Z,3.20
2022-12-31T03:53:07.994Z,26.17
2022-12-31T03:55:35.928Z,2.50
2022-12-31T03:58:03.835Z,1.60
2022-12-31T04:00:31.758Z,4.13
2022-12-31T04:02:59.661Z,2.77
2022-12-31T04:05:27.680Z,1.17
2022-12-31T04:07:56.224Z,2.53
2022-12-31T04:10:25.307Z,1.90
2022-12-31T04:12:53.081Z,2.37
2022-12-31T04:15:22.028Z,2.67
2022-12-31T04:17:50.147Z,4.47
2022-12-31T04:20:18.073Z,1.77
2022-12-31T04:22:45.847Z,1.07
2022-12-31T04:25:13.584Z,1.23
2022-12-31T04:27:44.050Z,1.63
2022-12-31T04:30:13.157Z,1.10
2022-12-31T04:32:41.315Z,2.20
2022-12-31T04:35:10.533Z,2.77
2022-12-31T04:37:38.526Z,1.30
2022-12-31T04:40:07.252Z,3.23
2022-12-31T04:42:35.039Z,1.03
2022-12-31T04:45:04.501Z,1.30
2022-12-31T04:47:32.292Z,1.30
2022-12-31T04:50:00.064Z,1.70
2022-12-31T04:52:27.911Z,1.97
2022-12-31T04:54:55.773Z,2.73
2022-12-31T04:57:23.510Z,1.23
2022-12-31T04:59:51.239Z,0.70
2022-12-31T05:02:20.582Z,1.33
2022-12-31T05:04:48.694Z,0.90
2022-12-31T05:07:16.451Z,2.53
2022-12-31T05:09:44.193Z,1.10
2022-12-31T05:12:11.989Z,1.30
2022-12-31T05:14:39.671Z,0.87
2022-12-31T05:17:07.457Z,0.93
2022-12-31T05:19:36.520Z,4.67
2022-12-31T05:22:21.920Z,0.90
2022-12-31T05:24:52.029Z,1.10
2022-12-31T05:27:19.832Z,0.80
2022-12-31T05:29:47.587Z,1.07
2022-12-31T05:32:15.445Z,1.57
2022-12-31T05:34:45.049Z,1.10
2022-12-31T05:37:13.026Z,1.20
2022-12-31T05:39:40.791Z,0.80
2022-12-31T05:42:08.682Z,2.47
2022-12-31T05:44:36.402Z,1.10
2022-12-31T05:47:04.115Z,3.57
2022-12-31T05:49:31.837Z,1.40
2022-12-31T05:52:01.092Z,1.83
2022-12-31T05:54:28.933Z,3.33
2022-12-31T05:56:56.841Z,1.50
2022-12-31T05:59:25.977Z,4.37
2022-12-31T06:01:53.699Z,3.50
2022-12-31T06:04:21.521Z,1.03
2022-12-31T06:06:49.273Z,1.10
2022-12-31T06:09:19.848Z,1.20
2022-12-31T06:11:47.847Z,1.23
2022-12-31T06:14:16.110Z,1.00
2022-12-31T06:16:43.928Z,0.90
2022-12-31T06:19:11.680Z,1.10
2022-12-31T06:21:39.370Z,1.73
2022-12-31T06:24:07.759Z,1.13
2022-12-31T06:26:37.413Z,0.80
2022-12-31T06:29:05.151Z,2.13
2022-12-31T06:31:33.064Z,2.37
2022-12-31T06:34:00.860Z,1.13
2022-12-31T06:36:28.676Z,2.13
2022-12-31T06:38:56.507Z,2.27
2022-12-31T06:41:24.208Z,1.70
2022-12-31T06:43:53.554Z,1.20
2022-12-31T06:46:21.517Z,1.40
2022-12-31T06:48:49.337Z,1.70
2022-12-31T06:51:19.797Z,3.60
2022-12-31T06:53:48.918Z,1.80
2022-12-31T06:56:19.592Z,1.70
2022-12-31T06:58:48.263Z,1.20
2022-12-31T07:01:38.273Z,0.93
2022-12-31T07:04:25.638Z,1.63
2022-12-31T07:06:59.668Z,2.17
2022-12-31T07:09:36.572Z,3.40
2022-12-31T07:12:14.631Z,0.90
2022-12-31T07:14:47.545Z,1.00
2022-12-31T07:17:27.340Z,0.77
2022-12-31T07:20:01.947Z,3.17
2022-12-31T07:22:30.185Z,0.90
2022-12-31T07:24:58.511Z,1.43
2022-12-31T07:27:38.231Z,2.67
2022-12-31T07:30:10.794Z,1.20
2022-12-31T07:33:07.679Z,4.93
2022-12-31T07:35:45.489Z,3.53
2022-12-31T07:38:21.716Z,3.27
2022-12-31T07:40:58.235Z,2.53
2022-12-31T07:43:34.022Z,1.57
2022-12-31T07:46:13.811Z,2.07
2022-12-31T07:48:43.662Z,2.40
2022-12-31T07:51:12.877Z,2.37
2022-12-31T07:53:40.801Z,0.80
2022-12-31T07:56:09.950Z,1.20
2022-12-31T07:59:02.477Z,0.90
2022-12-31T08:01:44.095Z,1.00
2022-12-31T08:04:22.809Z,1.13
2022-12-31T08:06:58.657Z,1.70
2022-12-31T08:09:36.546Z,1.40
2022-12-31T08:12:04.865Z,1.40
2022-12-31T08:14:38.256Z,2.73
2022-12-31T08:17:06.546Z,1.73
2022-12-31T08:19:36.335Z,4.37
2022-12-31T08:22:29.985Z,0.83
2022-12-31T08:25:14.009Z,10.47
2022-12-31T08:27:48.167Z,2.47
2022-12-31T08:30:18.646Z,2.37
2022-12-31T08:32:56.938Z,2.60
2022-12-31T08:35:38.503Z,4.80
2022-12-31T08:38:24.359Z,2.67
2022-12-31T08:41:00.105Z,2.50
2022-12-31T08:43:41.413Z,4.27
2022-12-31T08:46:19.380Z,2.63
2022-12-31T08:48:48.387Z,5.13
2022-12-31T08:51:22.029Z,2.87
2022-12-31T08:53:51.056Z,2.27
2022-12-31T08:56:28.651Z,3.27
2022-12-31T08:59:09.560Z,3.07
2022-12-31T09:01:50.269Z,1.70
2022-12-31T09:04:27.061Z,2.47
2022-12-31T09:07:01.032Z,1.60
2022-12-31T09:09:38.321Z,2.87
2022-12-31T09:12:20.425Z,6.20
2022-12-31T09:14:50.870Z,2.90
2022-12-31T09:17:45.777Z,2.03
2022-12-31T09:20:22.278Z,2.13
2022-12-31T09:22:52.979Z,4.33
2022-12-31T09:25:22.686Z,2.23
2022-12-31T09:28:00.920Z,1.73
2022-12-31T09:30:33.874Z,5.97
2022-12-31T09:33:08.481Z,4.37
2022-12-31T09:35:39.824Z,1.30
2022-12-31T09:38:17.775Z,3.67
2022-12-31T09:41:07.274Z,2.77
2022-12-31T09:44:14.384Z,1.37
2022-12-31T09:47:15.672Z,1.40
2022-12-31T09:50:18.089Z,1.63
2022-12-31T09:53:07.429Z,2.50
2022-12-31T09:55:40.940Z,2.77
2022-12-31T09:58:24.727Z,3.57
2022-12-31T10:00:56.214Z,2.23
2022-12-31T10:03:43.902Z,1.37
2022-12-31T10:06:25.894Z,1.83
2022-12-31T10:09:19.368Z,1.37
2022-12-31T10:12:06.105Z,1.77
2022-12-31T10:14:51.201Z,2.20
2022-12-31T10:17:38.758Z,1.83
2022-12-31T10:20:31.498Z,1.70
2022-12-31T10:23:20.330Z,1.93
2022-12-31T10:26:08.400Z,3.70
2022-12-31T10:28:50.249Z,2.97
2022-12-31T10:31:38.254Z,1.60
2022-12-31T10:34:15.813Z,3.20
2022-12-31T10:36:55.640Z,2.93
2022-12-31T10:39:39.786Z,3.50
2022-12-31T10:42:46.353Z,3.90
2022-12-31T10:45:59.286Z,2.90
2022-12-31T10:48:58.874Z,5.03
2022-12-31T10:51:55.408Z,2.27
2022-12-31T10:54:49.995Z,2.90
2022-12-31T10:57:40.511Z,3.10
2022-12-31T11:00:20.885Z,3.17
2022-12-31T11:03:28.803Z,2.20
2022-12-31T11:06:36.143Z,2.60
2022-12-31T11:09:48.422Z,2.03
2022-12-31T11:12:49.083Z,3.37
2022-12-31T11:15:34.737Z,1.87
2022-12-31T11:18:13.890Z,1.40
2022-12-31T11:21:00.320Z,1.70
2022-12-31T11:23:40.448Z,2.40
2022-12-31T11:26:23.778Z,1.90
2022-12-31T11:29:15.571Z,1.90
2022-12-31T11:32:03.226Z,3.23
2022-12-31T11:35:04.668Z,2.40
2022-12-31T11:37:42.035Z,4.90
2022-12-31T11:40:28.698Z,4.27
2022-12-31T11:43:09.978Z,1.93
2022-12-31T11:45:55.681Z,3.00
2022-12-31T11:48:31.290Z,3.13
2022-12-31T11:51:10.667Z,2.67
2022-12-31T11:53:57.392Z,3.97
2022-12-31T11:56:32.457Z,2.30
2022-12-31T11:59:06.146Z,2.70
2022-12-31T12:01:49.961Z,3.47
2022-12-31T12:04:18.181Z,4.00
2022-12-31T12:06:46.129Z,2.30
2022-12-31T12:09:17.212Z,2.60
2022-12-31T12:11:46.589Z,3.13
2022-12-31T12:14:21.677Z,5.93
2022-12-31T12:17:00.721Z,2.10
2022-12-31T12:19:33.678Z,1.70
2022-12-31T12:22:12.308Z,1.50
2022-12-31T12:24:40.227Z,1.80
2022-12-31T12:27:22.559Z,1.93
2022-12-31T12:29:50.519Z,2.33
2022-12-31T12:32:20.934Z,3.27
2022-12-31T12:34:50.134Z,2.47
2022-12-31T12:37:30.168Z,3.40
2022-12-31T12:40:00.866Z,2.83
2022-12-31T12:42:30.959Z,3.43
2022-12-31T12:45:03.279Z,2.50
2022-12-31T12:47:32.494Z,3.00
2022-12-31T12:50:01.216Z,2.43
2022-12-31T12:52:46.463Z,2.10
2022-12-31T12:55:21.507Z,1.90
2022-12-31T12:58:00.649Z,3.33
2022-12-31T13:00:35.367Z,2.63
2022-12-31T13:03:24.082Z,3.03
2022-12-31T13:06:11.163Z,3.27
2022-12-31T13:08:55.908Z,4.13
2022-12-31T13:11:35.955Z,1.77
2022-12-31T13:14:25.882Z,6.77
2022-12-31T13:16:59.817Z,3.10
2022-12-31T13:19:37.833Z,2.00
2022-12-31T13:22:12.963Z,1.77
2022-12-31T13:24:51.715Z,1.93
2022-12-31T13:27:25.161Z,3.50
2022-12-31T13:29:58.819Z,3.67
2022-12-31T13:32:36.011Z,2.87
2022-12-31T13:35:19.754Z,3.27
2022-12-31T13:37:49.223Z,3.50
2022-12-31T13:40:24.996Z,3.00
2022-12-31T13:42:57.099Z,1.87
2022-12-31T13:45:32.035Z,3.23
2022-12-31T13:48:06.671Z,3.03
2022-12-31T13:50:40.222Z,2.80
2022-12-31T13:53:17.184Z,2.37
2022-12-31T13:55:56.667Z,3.00
2022-12-31T13:58:32.517Z,2.10
2022-12-31T14:01:08.051Z,1.80
2022-12-31T14:03:44.888Z,2.10
2022-12-31T14:06:21.272Z,2.63
2022-12-31T14:08:49.356Z,3.20
2022-12-31T14:11:26.438Z,5.97
2022-12-31T14:14:08.039Z,5.33
2022-12-31T14:16:47.020Z,2.87
2022-12-31T14:19:29.163Z,3.53
2022-12-31T14:22:06.237Z,3.30
2022-12-31T14:24:44.087Z,8.83
2022-12-31T14:27:17.834Z,5.57
2022-12-31T14:29:49.899Z,3.20
2022-12-31T14:32:36.007Z,2.53
2022-12-31T14:35:19.749Z,7.50
2022-12-31T14:37:52.545Z,4.13
2022-12-31T14:40:28.047Z,4.80
2022-12-31T14:43:10.804Z,3.10
2022-12-31T14:45:50.935Z,4.93
2022-12-31T14:48:33.323Z,3.20
2022-12-31T14:51:03.508Z,4.33
2022-12-31T14:53:31.743Z,4.43
2022-12-31T14:56:02.502Z,3.03
2022-12-31T14:58:35.653Z,6.60
2022-12-31T15:01:08.903Z,3.73
2022-12-31T15:03:45.750Z,7.33
2022-12-31T15:06:35.098Z,4.10
2022-12-31T15:09:11.643Z,2.23
2022-12-31T15:11:51.391Z,4.33
2022-12-31T15:14:48.395Z,2.97
2022-12-31T15:17:27.559Z,6.80
2022-12-31T15:20:24.368Z,5.27
2022-12-31T15:22:53.946Z,6.77
2022-12-31T15:25:27.166Z,3.40
2022-12-31T15:27:56.625Z,2.90
2022-12-31T15:30:47.218Z,3.37
2022-12-31T15:33:23.408Z,2.50
2022-12-31T15:35:55.118Z,4.13
2022-12-31T15:38:37.465Z,10.20
2022-12-31T15:41:25.053Z,4.53
2022-12-31T15:43:55.887Z,10.37
2022-12-31T15:46:27.841Z,10.83
2022-12-31T15:49:05.142Z,13.03
2022-12-31T15:51:48.728Z,8.60
2022-12-31T15:54:25.134Z,8.77
2022-12-31T15:56:54.342Z,18.30
2022-12-31T15:59:24.647Z,8.97
2022-12-31T16:01:52.728Z,14.80
2022-12-31T16:04:23.864Z,36.93
2022-12-31T16:06:55.332Z,17.50
2022-12-31T16:09:28.314Z,6.80
2022-12-31T16:11:58.159Z,9.30
2022-12-31T16:14:30.485Z,5.77
2022-12-31T16:17:00.528Z,13.10
2022-12-31T16:19:34.004Z,5.90
2022-12-31T16:22:15.289Z,27.63
2022-12-31T16:25:28.392Z,16.27
2022-12-31T16:27:32.240Z,7.40
2022-12-31T16:30:04.746Z,6.50
2022-12-31T16:32:36.351Z,7.90
2022-12-31T16:35:10.054Z,7.07
2022-12-31T16:37:44.693Z,7.93
2022-12-31T16:40:24.800Z,5.97
2022-12-31T16:42:53.363Z,3.97
2022-12-31T16:45:31.879Z,3.63
2022-12-31T16:48:11.120Z,4.00
2022-12-31T16:50:45.375Z,11.37
2022-12-31T16:53:19.183Z,12.17
2022-12-31T16:55:54.647Z,6.30
2022-12-31T16:58:29.299Z,3.60
2022-12-31T17:01:04.824Z,6.20
2022-12-31T17:03:33.509Z,9.23
2022-12-31T17:06:13.336Z,6.13
2022-12-31T17:08:44.881Z,6.67
2022-12-31T17:11:23.518Z,4.80
2022-12-31T17:13:57.958Z,6.40
2022-12-31T17:16:27.090Z,5.47
2022-12-31T17:18:55.109Z,8.63
2022-12-31T17:21:27.334Z,6.70
2022-12-31T17:24:01.897Z,3.93
2022-12-31T17:26:32.461Z,5.47
2022-12-31T17:29:02.656Z,7.83
2022-12-31T17:31:34.323Z,11.30
2022-12-31T17:34:22.246Z,4.97
2022-12-31T17:36:58.741Z,7.60
2022-12-31T17:39:40.368Z,5.77
2022-12-31T17:42:12.011Z,4.73
2022-12-31T17:44:42.117Z,5.27
2022-12-31T17:47:13.889Z,7.13
2022-12-31T17:49:45.151Z,8.27
2022-12-31T17:52:15.037Z,11.00
2022-12-31T17:54:44.235Z,11.47
2022-12-31T17:57:23.244Z,10.03
2022-12-31T17:59:53.385Z,47.30
2022-12-31T18:02:21.787Z,7.27
2022-12-31T18:04:49.678Z,15.00
2022-12-31T18:07:17.486Z,6.77
2022-12-31T18:09:46.846Z,4.40
2022-12-31T18:12:16.422Z,9.97
2022-12-31T18:14:46.643Z,9.37
2022-12-31T18:17:16.935Z,10.63
2022-12-31T18:22:33.404Z,6.23
2022-12-31T18:25:03.129Z,8.60
2022-12-31T18:27:32.239Z,8.30
2022-12-31T18:30:04.811Z,9.43
2022-12-31T18:32:34.163Z,4.60
2022-12-31T18:35:03.100Z,5.87
2022-12-31T18:37:31.153Z,5.37
2022-12-31T18:39:58.874Z,7.17
2022-12-31T18:42:29.547Z,6.57
2022-12-31T18:44:57.275Z,6.07
2022-12-31T18:47:25.163Z,8.47
2022-12-31T18:49:52.917Z,12.03
2022-12-31T18:52:22.938Z,8.10
2022-12-31T18:54:50.894Z,38.80
2022-12-31T18:57:18.840Z,17.43
2022-12-31T18:59:48.081Z,16.83
2022-12-31T19:02:19.629Z,16.43
2022-12-31T19:04:48.210Z,9.33
2022-12-31T19:07:16.237Z,8.80
2022-12-31T19:09:45.913Z,8.57
2022-12-31T19:12:15.855Z,8.23
2022-12-31T19:14:44.034Z,9.53
2022-12-31T19:17:13.146Z,9.73
2022-12-31T19:19:41.909Z,10.37
2022-12-31T19:22:15.573Z,11.20
2022-12-31T19:24:43.408Z,10.47
2022-12-31T19:27:11.345Z,11.77
2022-12-31T19:29:39.591Z,12.37
2022-12-31T19:32:07.868Z,11.50
2022-12-31T19:34:37.150Z,12.67
2022-12-31T19:37:06.935Z,9.30
2022-12-31T19:39:34.806Z,113.33
2022-12-31T19:42:02.671Z,10.83
2022-12-31T19:44:30.587Z,8.60
2022-12-31T19:46:58.418Z,7.50
2022-12-31T19:49:26.187Z,9.73
2022-12-31T19:51:55.436Z,8.40
2022-12-31T19:54:23.227Z,11.23
2022-12-31T19:56:51.012Z,10.70
2022-12-31T19:59:18.910Z,13.17
2022-12-31T20:01:46.776Z,59.93
2022-12-31T20:04:14.829Z,19.47
2022-12-31T20:06:42.607Z,19.40
2022-12-31T20:09:12.701Z,12.77
2022-12-31T20:11:40.534Z,10.13
2022-12-31T20:14:08.370Z,11.57
2022-12-31T20:16:36.230Z,21.87
2022-12-31T20:19:04.231Z,10.07
2022-12-31T20:21:32.032Z,18.50
2022-12-31T20:23:59.838Z,52.17
2022-12-31T20:26:29.101Z,34.17
2022-12-31T20:28:56.897Z,35.20
2022-12-31T20:31:26.439Z,29.63
2022-12-31T20:33:55.104Z,26.63
2022-12-31T20:36:23.525Z,26.20
2022-12-31T20:38:51.598Z,36.97
2022-12-31T20:41:21.618Z,34.87
2022-12-31T20:43:51.274Z,184.33
2022-12-31T20:46:20.845Z,28.53
2022-12-31T20:48:49.834Z,50.23
2022-12-31T20:51:18.895Z,44.63
2022-12-31T20:53:48.885Z,44.53
2022-12-31T20:56:17.288Z,33.50
2022-12-31T20:58:45.667Z,19.03
2022-12-31T21:01:16.256Z,16.00
2022-12-31T21:06:35.609Z,16.30
2022-12-31T21:09:06.133Z,14.87
2022-12-31T21:11:51.681Z,38.90
2022-12-31T21:14:19.751Z,34.27
2022-12-31T21:16:48.955Z,48.73
2022-12-31T21:19:16.910Z,17.90
2022-12-31T21:21:44.716Z,155.80
2022-12-31T21:24:12.858Z,220.40
2022-12-31T21:26:40.584Z,33.53
2022-12-31T21:29:08.532Z,111.57
2022-12-31T21:31:36.507Z,87.93
2022-12-31T21:34:05.726Z,337.90
2022-12-31T21:36:33.637Z,33.87
2022-12-31T21:39:01.714Z,236.07
2022-12-31T21:41:46.971Z,21.77
2022-12-31T21:44:14.737Z,77.23
2022-12-31T21:47:00.795Z,44.60
2022-12-31T21:49:31.761Z,16.63
2022-12-31T21:52:16.876Z,12.60
2022-12-31T21:55:02.003Z,21.27
2022-12-31T21:57:34.287Z,103.80
2022-12-31T22:00:42.172Z,16.40
2022-12-31T22:03:28.717Z,34.37
2022-12-31T22:06:00.474Z,56.50
2022-12-31T22:08:29.938Z,13.73
2022-12-31T22:10:58.141Z,15.30
2022-12-31T22:13:26.092Z,10.90
2022-12-31T22:16:01.790Z,13.97
2022-12-31T22:18:34.326Z,15.27
2022-12-31T22:21:07.047Z,9.73
2022-12-31T22:23:38.096Z,10.50
2022-12-31T22:26:07.399Z,12.87
2022-12-31T22:28:39.065Z,19.13
2022-12-31T22:31:08.135Z,15.07
2022-12-31T22:33:36.142Z,8.83
2022-12-31T22:36:07.514Z,13.40
2022-12-31T22:38:35.831Z,20.40
2022-12-31T22:41:06.936Z,13.07
2022-12-31T22:43:36.609Z,14.83
2022-12-31T22:46:09.348Z,76.77
2022-12-31T22:48:37.809Z,19.20
2022-12-31T22:51:07.936Z,46.30
2022-12-31T22:53:36.232Z,39.60
2022-12-31T22:56:04.087Z,43.67
2022-12-31T22:58:31.944Z,44.50
2022-12-31T23:00:59.857Z,282.27
2022-12-31T23:03:27.934Z,1205.17
2022-12-31T23:05:56.136Z,728.13
2022-12-31T23:08:25.521Z,198.07
2022-12-31T23:11:05.914Z,393.77
2022-12-31T23:13:56.215Z,340.70
2022-12-31T23:16:42.394Z,235.20
2022-12-31T23:19:27.941Z,556.97
2022-12-31T23:22:13.199Z,185.67
2022-12-31T23:24:42.586Z,793.03
2022-12-31T23:27:11.464Z,399.70
2022-12-31T23:29:46.029Z,394.13
2022-12-31T23:32:15.296Z,353.00
2022-12-31T23:34:43.972Z,270.17
2022-12-31T23:37:12.292Z,167.70
2022-12-31T23:39:40.148Z,238.00
2022-12-31T23:42:09.586Z,404.07
2022-12-31T23:44:37.513Z,185.70
2022-12-31T23:47:05.430Z,142.63
2022-12-31T23:49:33.604Z,116.53
2022-12-31T23:52:01.505Z,85.83
2022-12-31T23:54:29.453Z,61.77
2022-12-31T23:56:57.270Z,111.80
2022-12-31T23:59:26.601Z,47.97
